Time;durP1;ratioP1;P1;durP2;ratioP2;P2;SDS_P1;SDS_P2;PMS_P1;PMS_P2;Temp;Humidity;BMP_temperature;BMP_pressure;BME280_temperature;BME280_humidity;BME280_pressure;Samples;Min_cycle;Max_cycle;Signal;HPM_P1;HPM_P2
2021/09/27 00:00:47;;;;;;;17.77;14.57;;;;;;;;;;2082846;28;20183;-55
2021/09/27 00:01:48;;;;;;;15.70;13.90;;;;;;;;;;2083158;28;20227;-58
2021/09/27 00:02:48;;;;;;;17.25;13.65;;;;;;;;;;2090513;28;20167;-57
2021/09/27 00:03:48;;;;;;;16.88;14.57;;;;;;;;;;2090734;28;20176;-62
2021/09/27 00:04:48;;;;;;;21.63;15.68;;;;;;;;;;2090025;28;20206;-60
2021/09/27 00:05:49;;;;;;;19.45;15.98;;;;;;;;;;2091057;28;20186;-58
2021/09/27 00:06:49;;;;;;;15.80;14.07;;;;;;;;;;2090983;28;20184;-60
2021/09/27 00:07:50;;;;;;;18.58;15.45;;;;;;;;;;2089367;28;20195;-61
2021/09/27 00:08:50;;;;;;;19.48;16.48;;;;;;;;;;2088462;28;20192;-58
2021/09/27 00:09:50;;;;;;;19.30;15.57;;;;;;;;;;2090203;28;20249;-57
2021/09/27 00:11:01;;;;;;;16.63;14.93;;;;;;;;;;2089532;28;20183;-55
2021/09/27 00:12:03;;;;;;;16.50;14.80;;;;;;;;;;2087656;28;20572;-59
2021/09/27 00:13:04;;;;;;;17.25;14.77;;;;;;;;;;2080940;28;20172;-59
2021/09/27 00:14:04;;;;;;;17.10;15.07;;;;;;;;;;2069511;28;20216;-59
2021/09/27 00:15:06;;;;;;;15.90;14.32;;;;;;;;;;2070183;28;20196;-59
2021/09/27 00:16:07;;;;;;;16.75;14.45;;;;;;;;;;2081935;28;20732;-55
2021/09/27 00:17:09;;;;;;;17.15;15.35;;;;;;;;;;2089978;28;20176;-57
2021/09/27 00:18:10;;;;;;;17.02;15.27;;;;;;;;;;2090147;28;20163;-57
2021/09/27 00:19:10;;;;;;;17.98;15.18;;;;;;;;;;2091370;28;20168;-56
2021/09/27 00:20:11;;;;;;;18.23;15.15;;;;;;;;;;2089378;28;20283;-56
2021/09/27 00:21:17;;;;;;;16.13;14.40;;;;;;;;;;2091109;28;20245;-61
2021/09/27 00:22:17;;;;;;;18.52;14.50;;;;;;;;;;2088838;28;20571;-62
2021/09/27 00:23:17;;;;;;;16.17;14.32;;;;;;;;;;2082495;28;20259;-62
2021/09/27 00:24:18;;;;;;;20.15;15.95;;;;;;;;;;2082269;28;20196;-64
2021/09/27 00:25:20;;;;;;;17.65;15.85;;;;;;;;;;2075648;28;20216;-57
2021/09/27 00:26:22;;;;;;;17.00;15.18;;;;;;;;;;2077995;28;20177;-61
2021/09/27 00:27:22;;;;;;;17.00;15.20;;;;;;;;;;2088738;28;20558;-61
2021/09/27 00:28:23;;;;;;;16.02;14.32;;;;;;;;;;2089556;28;20186;-66
2021/09/27 00:29:23;;;;;;;17.80;15.90;;;;;;;;;;2090685;28;20199;-61
2021/09/27 00:30:23;;;;;;;16.98;15.27;;;;;;;;;;2087190;28;20176;-61
2021/09/27 00:31:23;;;;;;;17.42;15.63;;;;;;;;;;2091265;28;20172;-59
2021/09/27 00:32:24;;;;;;;16.67;15.07;;;;;;;;;;2088627;28;20199;-61
2021/09/27 00:33:25;;;;;;;16.88;15.15;;;;;;;;;;2090624;28;20172;-60
2021/09/27 00:34:25;;;;;;;17.30;15.45;;;;;;;;;;2085556;28;20206;-63
2021/09/27 00:35:27;;;;;;;15.40;13.90;;;;;;;;;;2090916;28;20769;-60
2021/09/27 00:36:27;;;;;;;18.35;15.15;;;;;;;;;;2089051;28;20175;-62
2021/09/27 00:37:28;;;;;;;15.98;14.32;;;;;;;;;;2081845;28;20666;-63
2021/09/27 00:38:28;;;;;;;18.08;16.05;;;;;;;;;;2081754;28;20326;-55
2021/09/27 00:39:28;;;;;;;17.75;15.07;;;;;;;;;;2082051;28;20203;-60
2021/09/27 00:40:30;;;;;;;17.85;15.32;;;;;;;;;;2082365;28;20216;-62
2021/09/27 00:41:31;;;;;;;20.02;16.50;;;;;;;;;;2074666;28;20196;-66
2021/09/27 00:42:31;;;;;;;19.75;17.45;;;;;;;;;;2070622;28;20656;-58
2021/09/27 00:43:34;;;;;;;17.13;15.35;;;;;;;;;;2065674;28;20182;-58
2021/09/27 00:44:36;;;;;;;18.50;16.55;;;;;;;;;;2064362;28;20612;-58
2021/09/27 00:45:39;;;;;;;18.63;15.82;;;;;;;;;;2073135;28;20181;-56
2021/09/27 00:46:39;;;;;;;21.42;18.67;;;;;;;;;;2081623;28;20677;-58
2021/09/27 00:47:39;;;;;;;18.42;15.60;;;;;;;;;;2090586;28;20217;-55
2021/09/27 00:48:40;;;;;;;18.92;16.40;;;;;;;;;;2081680;28;20181;-58
2021/09/27 00:49:40;;;;;;;20.05;17.15;;;;;;;;;;2082467;28;20214;-59
2021/09/27 00:50:44;;;;;;;22.35;18.40;;;;;;;;;;2087315;28;20254;-62
2021/09/27 00:51:45;;;;;;;21.02;17.05;;;;;;;;;;2087136;28;22049;-58
2021/09/27 00:52:45;;;;;;;24.65;19.20;;;;;;;;;;2081774;28;20165;-55
2021/09/27 00:53:51;;;;;;;26.17;19.52;;;;;;;;;;2082147;28;20247;-60
2021/09/27 00:54:52;;;;;;;20.25;18.15;;;;;;;;;;2088227;28;20183;-61
2021/09/27 00:55:54;;;;;;;19.98;17.85;;;;;;;;;;2081612;28;20254;-59
2021/09/27 00:56:58;;;;;;;22.27;18.10;;;;;;;;;;2082183;28;20184;-58
2021/09/27 00:57:58;;;;;;;20.90;18.27;;;;;;;;;;2081251;28;20592;-55
2021/09/27 00:58:59;;;;;;;22.13;18.73;;;;;;;;;;2081202;28;20184;-58
2021/09/27 01:00:00;;;;;;;21.58;19.27;;;;;;;;;;2081849;28;20211;-61
2021/09/27 01:01:01;;;;;;;20.48;18.17;;;;;;;;;;2072736;28;20208;-59
2021/09/27 01:02:01;;;;;;;24.92;19.08;;;;;;;;;;2079908;28;20589;-64
2021/09/27 01:03:01;;;;;;;20.20;17.77;;;;;;;;;;2091602;28;20167;-56
2021/09/27 01:04:02;;;;;;;21.05;18.83;;;;;;;;;;2089700;28;20206;-57
2021/09/27 01:05:04;;;;;;;20.27;17.48;;;;;;;;;;2088896;28;20191;-55
2021/09/27 01:06:13;;;;;;;19.45;17.13;;;;;;;;;;2091094;28;20167;-55
2021/09/27 01:07:19;;;;;;;20.17;16.58;;;;;;;;;;2089562;28;20185;-56
2021/09/27 01:08:28;;;;;;;23.20;20.05;;;;;;;;;;2090833;28;20516;-58
2021/09/27 01:09:38;;;;;;;25.95;18.77;;;;;;;;;;2090980;28;20214;-62
2021/09/27 01:10:54;;;;;;;21.23;18.95;;;;;;;;;;2089722;28;20175;-64
2021/09/27 01:12:12;;;;;;;22.38;19.05;;;;;;;;;;2080768;28;20168;-64
2021/09/27 01:13:32;;;;;;;20.70;17.67;;;;;;;;;;2083594;28;20251;-59
2021/09/27 01:14:50;;;;;;;21.33;17.77;;;;;;;;;;2088806;28;20166;-59
2021/09/27 01:16:03;;;;;;;21.60;17.50;;;;;;;;;;2088490;28;20191;-58
2021/09/27 01:17:17;;;;;;;21.70;19.17;;;;;;;;;;2079584;28;20302;-63
2021/09/27 01:18:20;;;;;;;22.35;19.13;;;;;;;;;;2084020;28;20160;-62
2021/09/27 01:19:20;;;;;;;21.70;18.85;;;;;;;;;;2089555;28;20187;-59
2021/09/27 01:20:20;;;;;;;24.52;19.25;;;;;;;;;;2086985;28;20179;-62
2021/09/27 01:21:26;;;;;;;23.13;20.42;;;;;;;;;;2082636;28;20203;-62
2021/09/27 01:22:30;;;;;;;23.98;20.35;;;;;;;;;;2082760;28;20201;-61
2021/09/27 01:23:58;;;;;;;25.02;20.00;;;;;;;;;;2082088;28;20171;-58
2021/09/27 01:25:22;;;;;;;23.83;19.90;;;;;;;;;;2086332;28;20187;-56
2021/09/27 01:26:22;;;;;;;22.95;18.73;;;;;;;;;;2094053;28;20638;-61
2021/09/27 01:27:40;;;;;;;19.70;17.60;;;;;;;;;;2091686;28;20180;-60
2021/09/27 01:28:49;;;;;;;22.63;19.90;;;;;;;;;;2089149;28;20222;-63
2021/09/27 01:30:08;;;;;;;22.10;18.83;;;;;;;;;;2078972;28;20175;-61
2021/09/27 01:31:31;;;;;;;24.42;19.90;;;;;;;;;;2079544;28;20192;-63
2021/09/27 01:32:52;;;;;;;22.83;17.50;;;;;;;;;;2088767;28;20229;-64
2021/09/27 01:33:57;;;;;;;21.65;19.05;;;;;;;;;;2085022;28;20694;-61
2021/09/27 01:35:09;;;;;;;21.63;17.55;;;;;;;;;;2099299;22;20234;-55
2021/09/27 01:36:12;;;;;;;22.25;18.33;;;;;;;;;;2085529;28;20228;-58
2021/09/27 01:37:17;;;;;;;20.38;18.20;;;;;;;;;;2086718;28;20187;-60
2021/09/27 01:38:40;;;;;;;19.42;17.40;;;;;;;;;;2088424;28;20255;-60
2021/09/27 01:40:00;;;;;;;19.02;16.77;;;;;;;;;;2080919;28;20210;-60
2021/09/27 01:41:09;;;;;;;22.23;17.70;;;;;;;;;;2088152;28;20240;-60
2021/09/27 01:42:09;;;;;;;21.08;17.65;;;;;;;;;;2087900;28;20171;-59
2021/09/27 01:43:28;;;;;;;19.50;17.50;;;;;;;;;;2089178;28;20203;-60
2021/09/27 01:44:40;;;;;;;19.27;17.20;;;;;;;;;;2087724;28;20178;-59
2021/09/27 01:45:59;;;;;;;18.00;15.95;;;;;;;;;;2075986;28;20189;-60
2021/09/27 01:47:00;;;;;;;19.77;17.65;;;;;;;;;;2076663;28;20177;-59
2021/09/27 01:48:11;;;;;;;19.92;16.58;;;;;;;;;;2080051;28;20272;-60
2021/09/27 01:49:20;;;;;;;19.92;17.40;;;;;;;;;;2077300;28;20521;-59
2021/09/27 01:50:26;;;;;;;20.92;17.90;;;;;;;;;;2081198;28;20218;-60
2021/09/27 01:51:41;;;;;;;19.48;16.45;;;;;;;;;;2080705;28;20173;-59
2021/09/27 01:53:02;;;;;;;20.90;17.98;;;;;;;;;;2080733;28;20187;-59
2021/09/27 01:54:14;;;;;;;20.52;18.33;;;;;;;;;;2077636;28;20233;-59
2021/09/27 01:55:19;;;;;;;21.83;17.73;;;;;;;;;;2080029;28;20645;-59
2021/09/27 01:56:28;;;;;;;21.20;18.85;;;;;;;;;;2081010;28;20176;-60
2021/09/27 01:57:28;;;;;;;24.95;19.75;;;;;;;;;;2079882;28;20596;-60
2021/09/27 01:58:28;;;;;;;22.77;19.00;;;;;;;;;;2079501;28;20265;-58
2021/09/27 01:59:45;;;;;;;25.10;19.52;;;;;;;;;;2080217;28;20172;-58
2021/09/27 02:00:51;;;;;;;19.95;17.83;;;;;;;;;;2077518;28;20203;-60
2021/09/27 02:02:03;;;;;;;22.40;18.08;;;;;;;;;;2080330;28;20180;-60
2021/09/27 02:03:03;;;;;;;20.33;18.20;;;;;;;;;;2078627;28;20799;-60
2021/09/27 02:04:11;;;;;;;22.38;19.13;;;;;;;;;;2080488;28;20179;-60
2021/09/27 02:05:16;;;;;;;24.42;19.20;;;;;;;;;;2079634;28;20192;-60
2021/09/27 02:06:36;;;;;;;21.63;19.40;;;;;;;;;;2080931;28;20191;-59
2021/09/27 02:07:44;;;;;;;21.60;19.38;;;;;;;;;;2080782;28;20171;-60
2021/09/27 02:08:54;;;;;;;25.05;19.83;;;;;;;;;;2078266;28;20275;-59
2021/09/27 02:10:07;;;;;;;21.45;19.02;;;;;;;;;;2079710;28;20173;-60
2021/09/27 02:11:14;;;;;;;23.05;19.63;;;;;;;;;;2078830;28;20200;-60
2021/09/27 02:12:20;;;;;;;25.98;20.52;;;;;;;;;;2080915;28;20183;-60
2021/09/27 02:13:27;;;;;;;25.10;21.40;;;;;;;;;;2080608;28;20214;-60
2021/09/27 02:14:30;;;;;;;23.67;21.15;;;;;;;;;;2080122;28;20184;-59
2021/09/27 02:15:35;;;;;;;25.35;22.00;;;;;;;;;;2079413;28;20224;-59
2021/09/27 02:16:41;;;;;;;26.33;22.02;;;;;;;;;;2080970;28;20174;-58
2021/09/27 02:17:49;;;;;;;24.23;21.63;;;;;;;;;;2071460;28;20322;-60
2021/09/27 02:18:53;;;;;;;24.50;21.33;;;;;;;;;;2071859;28;20191;-60
2021/09/27 02:20:06;;;;;;;26.05;21.70;;;;;;;;;;2080689;28;20176;-60
2021/09/27 02:21:14;;;;;;;24.92;21.15;;;;;;;;;;2078329;28;20203;-54
2021/09/27 02:22:20;;;;;;;25.95;21.25;;;;;;;;;;2080406;28;20652;-58
2021/09/27 02:23:29;;;;;;;25.00;21.73;;;;;;;;;;2080486;28;20164;-58
2021/09/27 02:24:40;;;;;;;25.75;20.80;;;;;;;;;;2080564;28;20172;-60
2021/09/27 02:25:42;;;;;;;25.20;21.35;;;;;;;;;;2080525;28;20175;-60
2021/09/27 02:26:51;;;;;;;24.70;20.25;;;;;;;;;;2078308;28;20177;-58
2021/09/27 02:27:51;;;;;;;22.10;19.63;;;;;;;;;;2081106;28;20684;-60
2021/09/27 02:28:51;;;;;;;23.15;20.63;;;;;;;;;;2079744;28;20192;-60
2021/09/27 02:29:52;;;;;;;23.50;21.00;;;;;;;;;;2080133;28;20200;-59
2021/09/27 02:31:05;;;;;;;25.42;22.33;;;;;;;;;;2080552;28;20168;-60
2021/09/27 02:32:06;;;;;;;26.13;21.90;;;;;;;;;;2078763;28;20172;-60
2021/09/27 02:33:14;;;;;;;26.42;22.48;;;;;;;;;;2078917;28;20185;-59
2021/09/27 02:34:29;;;;;;;26.45;22.58;;;;;;;;;;2078517;28;20317;-60
2021/09/27 02:35:33;;;;;;;25.30;22.17;;;;;;;;;;2080816;28;20736;-58
2021/09/27 02:36:39;;;;;;;25.67;21.92;;;;;;;;;;2079020;28;20168;-59
2021/09/27 02:37:58;;;;;;;27.95;22.60;;;;;;;;;;2080115;28;20176;-60
2021/09/27 02:39:04;;;;;;;24.40;21.52;;;;;;;;;;2080139;28;20164;-58
2021/09/27 02:40:10;;;;;;;24.63;21.98;;;;;;;;;;2078319;28;20170;-60
2021/09/27 02:41:34;;;;;;;27.85;23.50;;;;;;;;;;2079412;28;20203;-58
2021/09/27 02:42:36;;;;;;;25.90;22.02;;;;;;;;;;2074698;28;20547;-60
2021/09/27 02:43:37;;;;;;;26.52;22.95;;;;;;;;;;2079622;28;20203;-59
2021/09/27 02:44:37;;;;;;;27.05;22.65;;;;;;;;;;2078473;28;20231;-60
2021/09/27 02:45:38;;;;;;;25.58;22.23;;;;;;;;;;2080384;28;20540;-59
2021/09/27 02:46:44;;;;;;;27.38;22.50;;;;;;;;;;2080166;28;20187;-60
2021/09/27 02:47:46;;;;;;;29.13;23.52;;;;;;;;;;2080850;28;20176;-56
2021/09/27 02:48:55;;;;;;;28.80;22.83;;;;;;;;;;2077904;28;20869;-59
2021/09/27 02:49:57;;;;;;;26.67;23.13;;;;;;;;;;2077922;28;20202;-60
2021/09/27 02:50:58;;;;;;;26.10;22.25;;;;;;;;;;2080060;28;20176;-59
2021/09/27 02:52:00;;;;;;;27.00;23.23;;;;;;;;;;2072083;28;20208;-60
2021/09/27 02:53:01;;;;;;;24.90;22.17;;;;;;;;;;2071519;28;20563;-58
2021/09/27 02:54:05;;;;;;;25.95;22.85;;;;;;;;;;2080606;28;20196;-57
2021/09/27 02:55:09;;;;;;;24.98;22.27;;;;;;;;;;2080959;28;20184;-60
2021/09/27 02:56:27;;;;;;;26.08;22.55;;;;;;;;;;2071224;28;20208;-61
2021/09/27 02:57:46;;;;;;;24.55;21.90;;;;;;;;;;2073521;28;20176;-60
2021/09/27 02:58:49;;;;;;;27.35;23.70;;;;;;;;;;2080563;28;20172;-60
2021/09/27 03:00:10;;;;;;;26.83;22.60;;;;;;;;;;2072096;28;20189;-60
2021/09/27 03:01:19;;;;;;;28.20;23.42;;;;;;;;;;2074636;28;20193;-59
2021/09/27 03:02:19;;;;;;;29.77;23.00;;;;;;;;;;2081099;28;20179;-59
2021/09/27 03:03:31;;;;;;;30.40;25.00;;;;;;;;;;2080816;28;20168;-59
2021/09/27 03:04:40;;;;;;;30.13;24.15;;;;;;;;;;2080419;28;20696;-58
2021/09/27 03:06:01;;;;;;;29.00;24.35;;;;;;;;;;2081104;28;20179;-59
2021/09/27 03:07:13;;;;;;;28.45;23.77;;;;;;;;;;2080139;28;20286;-59
2021/09/27 03:08:28;;;;;;;31.05;24.75;;;;;;;;;;2076929;28;20226;-59
2021/09/27 03:09:28;;;;;;;29.70;24.20;;;;;;;;;;2080637;28;20199;-60
2021/09/27 03:10:28;;;;;;;26.92;24.02;;;;;;;;;;2081850;28;20215;-60
2021/09/27 03:11:44;;;;;;;27.60;23.50;;;;;;;;;;2082454;28;20176;-60
2021/09/27 03:12:53;;;;;;;28.98;24.42;;;;;;;;;;2077986;28;20196;-60
2021/09/27 03:13:56;;;;;;;28.33;23.60;;;;;;;;;;2077572;28;20254;-60
2021/09/27 03:15:18;;;;;;;27.08;22.52;;;;;;;;;;2081830;28;20640;-58
2021/09/27 03:16:18;;;;;;;28.92;24.08;;;;;;;;;;2079613;28;20183;-60
2021/09/27 03:17:45;;;;;;;27.88;23.30;;;;;;;;;;2082325;28;20545;-57
2021/09/27 03:19:11;;;;;;;27.50;24.58;;;;;;;;;;2081525;28;20274;-60
2021/09/27 03:20:30;;;;;;;26.30;22.45;;;;;;;;;;2081612;28;20165;-59
2021/09/27 03:21:50;;;;;;;29.15;24.02;;;;;;;;;;2081428;28;20726;-60
2021/09/27 03:22:50;;;;;;;29.60;24.33;;;;;;;;;;2074690;28;20192;-60
2021/09/27 03:24:03;;;;;;;27.33;23.52;;;;;;;;;;2080417;28;20195;-58
2021/09/27 03:25:03;;;;;;;28.05;24.02;;;;;;;;;;2080310;28;20195;-60
2021/09/27 03:26:09;;;;;;;25.80;23.10;;;;;;;;;;2082309;28;20612;-60
2021/09/27 03:27:14;;;;;;;26.15;22.40;;;;;;;;;;2081942;28;20177;-60
2021/09/27 03:28:33;;;;;;;27.70;23.13;;;;;;;;;;2078144;28;20173;-60
2021/09/27 03:29:33;;;;;;;29.33;23.90;;;;;;;;;;2079616;28;20192;-58
2021/09/27 03:30:37;;;;;;;31.23;23.30;;;;;;;;;;2082279;28;20177;-60
2021/09/27 03:31:54;;;;;;;27.23;22.88;;;;;;;;;;2081933;28;20183;-58
2021/09/27 03:33:00;;;;;;;26.23;22.73;;;;;;;;;;2076931;28;20263;-58
2021/09/27 03:34:33;;;;;;;30.17;23.48;;;;;;;;;;2079956;28;20182;-56
2021/09/27 03:35:49;;;;;;;27.50;22.00;;;;;;;;;;2051376;28;20265;-60
2021/09/27 03:36:59;;;;;;;26.30;23.27;;;;;;;;;;2077924;28;20207;-58
2021/09/27 03:38:05;;;;;;;26.10;22.38;;;;;;;;;;2081230;28;20667;-56
2021/09/27 03:39:09;;;;;;;23.35;20.75;;;;;;;;;;2081807;28;20180;-60
2021/09/27 03:40:24;;;;;;;25.63;22.17;;;;;;;;;;2081988;28;20640;-59
2021/09/27 03:41:43;;;;;;;26.50;21.67;;;;;;;;;;2080146;28;20203;-56
2021/09/27 03:42:47;;;;;;;29.13;23.08;;;;;;;;;;2081077;28;20645;-59
2021/09/27 03:43:50;;;;;;;27.35;22.10;;;;;;;;;;2081247;28;20663;-60
2021/09/27 03:44:50;;;;;;;24.30;21.67;;;;;;;;;;2081359;28;20192;-59
2021/09/27 03:45:56;;;;;;;27.40;22.40;;;;;;;;;;2080160;28;20168;-60
2021/09/27 03:47:15;;;;;;;25.13;21.10;;;;;;;;;;2080050;28;20172;-59
2021/09/27 03:48:21;;;;;;;23.35;20.77;;;;;;;;;;2081349;28;20520;-59
2021/09/27 03:49:34;;;;;;;26.98;22.45;;;;;;;;;;2081590;28;20176;-58
2021/09/27 03:50:37;;;;;;;27.45;22.83;;;;;;;;;;2080861;28;21123;-60
2021/09/27 03:51:46;;;;;;;24.55;21.50;;;;;;;;;;2079811;28;20180;-59
2021/09/27 03:52:52;;;;;;;23.92;21.05;;;;;;;;;;2081053;28;20271;-58
2021/09/27 03:54:04;;;;;;;24.52;21.40;;;;;;;;;;2081288;28;20176;-60
2021/09/27 03:55:09;;;;;;;26.50;22.75;;;;;;;;;;2080520;28;20208;-59
2021/09/27 03:56:27;;;;;;;26.38;22.30;;;;;;;;;;2080519;28;20169;-60
2021/09/27 03:57:32;;;;;;;27.27;22.63;;;;;;;;;;2081606;28;20669;-60
2021/09/27 03:58:35;;;;;;;28.17;23.30;;;;;;;;;;2081145;28;20302;-59
2021/09/27 03:59:56;;;;;;;27.52;23.17;;;;;;;;;;2078877;28;20714;-58
2021/09/27 04:01:02;;;;;;;25.30;21.60;;;;;;;;;;2079905;28;20184;-61
2021/09/27 04:02:07;;;;;;;24.15;21.52;;;;;;;;;;2072144;28;20311;-60
2021/09/27 04:03:28;;;;;;;25.73;22.70;;;;;;;;;;2072328;28;20187;-60
2021/09/27 04:04:28;;;;;;;26.40;21.60;;;;;;;;;;2079952;28;20604;-60
2021/09/27 04:05:34;;;;;;;28.73;23.40;;;;;;;;;;2078739;28;20181;-57
2021/09/27 04:06:34;;;;;;;27.33;22.83;;;;;;;;;;2080933;28;20250;-60
2021/09/27 04:07:42;;;;;;;34.83;22.88;;;;;;;;;;2079425;28;20322;-60
2021/09/27 04:08:48;;;;;;;25.17;21.83;;;;;;;;;;2081079;28;20172;-60
2021/09/27 04:10:05;;;;;;;27.00;23.05;;;;;;;;;;2081918;28;20268;-61
2021/09/27 04:11:08;;;;;;;29.92;23.83;;;;;;;;;;2080888;28;20251;-60
2021/09/27 04:12:12;;;;;;;32.28;24.77;;;;;;;;;;2080799;28;20175;-60
2021/09/27 04:13:31;;;;;;;30.17;24.10;;;;;;;;;;2081840;28;20246;-59
2021/09/27 04:14:31;;;;;;;30.60;23.83;;;;;;;;;;2081572;28;20204;-60
2021/09/27 04:15:50;;;;;;;31.75;25.50;;;;;;;;;;2081876;28;20173;-60
2021/09/27 04:16:59;;;;;;;32.25;24.17;;;;;;;;;;2081324;28;20179;-61
2021/09/27 04:18:07;;;;;;;27.60;23.40;;;;;;;;;;2079884;28;20200;-61
2021/09/27 04:19:12;;;;;;;29.77;24.30;;;;;;;;;;2082164;28;20176;-59
2021/09/27 04:20:24;;;;;;;35.60;25.92;;;;;;;;;;2082328;28;20152;-59
2021/09/27 04:21:24;;;;;;;33.47;26.77;;;;;;;;;;2080526;28;20277;-60
2021/09/27 04:22:28;;;;;;;31.38;26.50;;;;;;;;;;2081726;28;20176;-59
2021/09/27 04:23:39;;;;;;;33.60;26.98;;;;;;;;;;2081996;28;20560;-61
2021/09/27 04:24:56;;;;;;;35.80;28.23;;;;;;;;;;2080287;28;20192;-57
2021/09/27 04:26:07;;;;;;;36.10;29.23;;;;;;;;;;2079722;28;20620;-60
2021/09/27 04:27:18;;;;;;;30.83;26.88;;;;;;;;;;2081892;28;20171;-60
2021/09/27 04:28:25;;;;;;;39.13;29.23;;;;;;;;;;2079660;28;20171;-60
2021/09/27 04:29:43;;;;;;;34.50;28.42;;;;;;;;;;2072921;28;20169;-60
2021/09/27 04:31:08;;;;;;;33.38;26.52;;;;;;;;;;2074385;28;20192;-60
2021/09/27 04:32:30;;;;;;;35.55;27.15;;;;;;;;;;2079958;28;20203;-60
2021/09/27 04:33:39;;;;;;;33.22;27.42;;;;;;;;;;2081072;28;20234;-60
2021/09/27 04:35:08;;;;;;;35.85;27.88;;;;;;;;;;2071928;28;20300;-60
2021/09/27 04:36:09;;;;;;;37.22;28.88;;;;;;;;;;2068948;28;20283;-60
2021/09/27 04:37:09;;;;;;;40.22;30.15;;;;;;;;;;2081722;28;20649;-60
2021/09/27 04:38:10;;;;;;;33.67;28.92;;;;;;;;;;2079038;28;20203;-60
2021/09/27 04:39:19;;;;;;;37.03;29.02;;;;;;;;;;2080828;28;20192;-60
2021/09/27 04:40:27;;;;;;;37.85;28.02;;;;;;;;;;2080080;28;20176;-60
2021/09/27 04:41:53;;;;;;;37.97;29.77;;;;;;;;;;2081855;28;20229;-59
2021/09/27 04:42:57;;;;;;;40.08;28.40;;;;;;;;;;2076976;28;20199;-60
2021/09/27 04:44:02;;;;;;;33.47;26.63;;;;;;;;;;2078377;28;20555;-60
2021/09/27 04:45:21;;;;;;;35.72;27.88;;;;;;;;;;2081019;28;20751;-60
2021/09/27 04:46:27;;;;;;;36.67;29.67;;;;;;;;;;2077006;28;20183;-61
2021/09/27 04:47:30;;;;;;;33.58;27.42;;;;;;;;;;2081200;28;20187;-61
2021/09/27 04:48:30;;;;;;;37.97;29.23;;;;;;;;;;2080692;28;20183;-60
2021/09/27 04:49:46;;;;;;;35.97;28.95;;;;;;;;;;2080116;28;20172;-60
2021/09/27 04:51:04;;;;;;;34.13;27.73;;;;;;;;;;2080540;28;20192;-60
2021/09/27 04:52:07;;;;;;;35.83;29.55;;;;;;;;;;2080371;28;20226;-58
2021/09/27 04:53:13;;;;;;;38.03;28.27;;;;;;;;;;2073162;28;20208;-60
2021/09/27 04:54:20;;;;;;;34.42;27.42;;;;;;;;;;2068464;28;20177;-58
2021/09/27 04:55:42;;;;;;;33.75;27.23;;;;;;;;;;2079493;28;20663;-60
2021/09/27 04:56:45;;;;;;;37.08;26.65;;;;;;;;;;2078536;28;20211;-60
2021/09/27 04:57:55;;;;;;;34.05;27.77;;;;;;;;;;2080222;28;20176;-59
2021/09/27 04:59:06;;;;;;;33.35;27.80;;;;;;;;;;2078352;28;20171;-61
2021/09/27 05:00:14;;;;;;;34.13;26.83;;;;;;;;;;2080239;28;20850;-60
2021/09/27 05:01:33;;;;;;;37.03;27.92;;;;;;;;;;2080074;28;20207;-62
2021/09/27 05:02:38;;;;;;;35.10;27.42;;;;;;;;;;2078985;28;20252;-60
2021/09/27 05:03:56;;;;;;;36.60;28.33;;;;;;;;;;2079162;28;20161;-59
2021/09/27 05:05:09;;;;;;;39.95;27.70;;;;;;;;;;2078381;28;20199;-60
2021/09/27 05:06:12;;;;;;;32.83;26.63;;;;;;;;;;2078414;28;20519;-60
2021/09/27 05:07:12;;;;;;;33.70;28.17;;;;;;;;;;2080525;28;20500;-60
2021/09/27 05:08:21;;;;;;;34.30;26.80;;;;;;;;;;2080983;28;20179;-60
2021/09/27 05:09:34;;;;;;;38.58;26.92;;;;;;;;;;2079254;28;20175;-59
2021/09/27 05:10:46;;;;;;;36.95;27.48;;;;;;;;;;2080986;28;20186;-60
2021/09/27 05:11:52;;;;;;;33.45;28.15;;;;;;;;;;2078171;28;20180;-61
2021/09/27 05:13:04;;;;;;;35.45;28.38;;;;;;;;;;2080515;28;20227;-59
2021/09/27 05:14:23;;;;;;;34.22;28.45;;;;;;;;;;2079959;28;20171;-60
2021/09/27 05:15:42;;;;;;;35.53;27.75;;;;;;;;;;2078088;28;20242;-60
2021/09/27 05:16:45;;;;;;;37.50;27.13;;;;;;;;;;2079239;28;20240;-60
2021/09/27 05:17:51;;;;;;;34.92;27.02;;;;;;;;;;2080529;28;20276;-59
2021/09/27 05:19:06;;;;;;;34.00;26.75;;;;;;;;;;2080961;28;20195;-58
2021/09/27 05:20:19;;;;;;;34.50;27.58;;;;;;;;;;2080396;28;20179;-60
2021/09/27 05:21:39;;;;;;;31.70;25.65;;;;;;;;;;2080035;28;20196;-59
2021/09/27 05:22:47;;;;;;;31.77;25.95;;;;;;;;;;2080700;28;20168;-58
2021/09/27 05:24:08;;;;;;;33.05;24.70;;;;;;;;;;2081261;28;20199;-59
2021/09/27 05:25:21;;;;;;;28.83;23.98;;;;;;;;;;2071520;28;20267;-61
2021/09/27 05:26:37;;;;;;;33.13;26.10;;;;;;;;;;2072988;28;20270;-58
2021/09/27 05:27:55;;;;;;;32.75;26.60;;;;;;;;;;2071762;28;20183;-58
2021/09/27 05:28:56;;;;;;;32.47;24.25;;;;;;;;;;2069838;28;20282;-61
2021/09/27 05:30:11;;;;;;;30.80;24.73;;;;;;;;;;2080897;28;20214;-60
2021/09/27 05:31:30;;;;;;;36.03;25.50;;;;;;;;;;2080624;28;20182;-61
2021/09/27 05:32:33;;;;;;;36.75;26.83;;;;;;;;;;2080505;28;20187;-59
2021/09/27 05:33:45;;;;;;;33.50;27.33;;;;;;;;;;2078308;28;20896;-61
2021/09/27 05:34:52;;;;;;;33.20;26.15;;;;;;;;;;2078437;28;20291;-61
2021/09/27 05:36:12;;;;;;;43.20;32.95;;;;;;;;;;2080867;28;20659;-60
2021/09/27 05:37:19;;;;;;;35.92;27.00;;;;;;;;;;2080237;28;20189;-60
2021/09/27 05:38:29;;;;;;;33.60;27.15;;;;;;;;;;2078042;28;20177;-60
2021/09/27 05:39:41;;;;;;;36.90;29.40;;;;;;;;;;2081264;28;20211;-59
2021/09/27 05:40:49;;;;;;;37.85;28.60;;;;;;;;;;2079719;28;20544;-61
2021/09/27 05:42:05;;;;;;;35.72;26.88;;;;;;;;;;2080608;28;20298;-60
2021/09/27 05:43:25;;;;;;;32.28;26.00;;;;;;;;;;2078699;28;20198;-61
2021/09/27 05:44:31;;;;;;;31.70;26.27;;;;;;;;;;2079201;28;20179;-59
2021/09/27 05:45:35;;;;;;;31.35;26.50;;;;;;;;;;2080304;28;20180;-56
2021/09/27 05:46:54;;;;;;;31.73;26.00;;;;;;;;;;2075493;28;21222;-59
2021/09/27 05:47:54;;;;;;;31.17;25.40;;;;;;;;;;2080411;28;20648;-61
2021/09/27 05:49:09;;;;;;;30.63;24.33;;;;;;;;;;2081041;28;20279;-60
2021/09/27 05:50:16;;;;;;;36.88;29.15;;;;;;;;;;2081084;28;20160;-60
2021/09/27 05:51:24;;;;;;;34.28;27.83;;;;;;;;;;2078934;28;20560;-60
2021/09/27 05:52:33;;;;;;;39.45;31.55;;;;;;;;;;2080115;28;20878;-60
2021/09/27 05:53:52;;;;;;;34.00;24.38;;;;;;;;;;2079991;28;20671;-59
2021/09/27 05:55:04;;;;;;;36.85;29.55;;;;;;;;;;2071210;28;20284;-58
2021/09/27 05:56:11;;;;;;;33.00;26.88;;;;;;;;;;2072713;28;20219;-60
2021/09/27 05:57:14;;;;;;;31.70;25.80;;;;;;;;;;2080192;28;20171;-58
2021/09/27 05:58:25;;;;;;;27.42;23.85;;;;;;;;;;2077699;28;20219;-59
2021/09/27 05:59:32;;;;;;;28.08;22.90;;;;;;;;;;2079983;28;20206;-64
2021/09/27 06:00:41;;;;;;;39.47;32.17;;;;;;;;;;2076160;28;20188;-58
2021/09/27 06:01:54;;;;;;;31.60;26.40;;;;;;;;;;2077866;28;20291;-60
2021/09/27 06:03:03;;;;;;;32.28;26.27;;;;;;;;;;2077875;28;20176;-58
2021/09/27 06:04:22;;;;;;;31.35;25.15;;;;;;;;;;2078461;28;20184;-62
2021/09/27 06:05:30;;;;;;;31.25;23.10;;;;;;;;;;2079834;28;20263;-61
2021/09/27 06:06:35;;;;;;;32.50;25.10;;;;;;;;;;2077479;28;20183;-61
2021/09/27 06:07:41;;;;;;;37.38;28.08;;;;;;;;;;2075915;28;20165;-62
2021/09/27 06:08:49;;;;;;;29.25;23.10;;;;;;;;;;2077210;28;20214;-61
2021/09/27 06:09:49;;;;;;;26.73;21.10;;;;;;;;;;2079380;28;20191;-64
2021/09/27 06:11:10;;;;;;;28.52;25.10;;;;;;;;;;2078891;28;20188;-62
2021/09/27 06:12:10;;;;;;;44.20;35.80;;;;;;;;;;2078880;28;20655;-63
2021/09/27 06:13:21;;;;;;;34.60;27.25;;;;;;;;;;2071176;28;20248;-62
2021/09/27 06:14:22;;;;;;;24.08;21.17;;;;;;;;;;2071898;28;20219;-64
2021/09/27 06:15:25;;;;;;;27.30;23.48;;;;;;;;;;2080486;28;20168;-64
2021/09/27 06:16:44;;;;;;;30.92;25.13;;;;;;;;;;2078691;28;20183;-63
2021/09/27 06:18:03;;;;;;;43.38;34.58;;;;;;;;;;2078856;28;20219;-63
2021/09/27 06:19:05;;;;;;;32.20;27.67;;;;;;;;;;2080064;28;20548;-64
2021/09/27 06:20:28;;;;;;;27.17;22.88;;;;;;;;;;2078662;28;20184;-62
2021/09/27 06:21:31;;;;;;;27.27;21.77;;;;;;;;;;2079996;28;20203;-64
2021/09/27 06:22:32;;;;;;;25.60;21.45;;;;;;;;;;2079642;28;20203;-64
2021/09/27 06:23:41;;;;;;;26.60;21.27;;;;;;;;;;2080655;28;20538;-63
2021/09/27 06:24:56;;;;;;;27.80;21.77;;;;;;;;;;2077789;28;20200;-64
2021/09/27 06:25:56;;;;;;;23.73;20.08;;;;;;;;;;2079468;28;20202;-64
2021/09/27 06:27:02;;;;;;;28.65;24.33;;;;;;;;;;2080776;28;20188;-64
2021/09/27 06:28:02;;;;;;;23.77;21.17;;;;;;;;;;2079437;28;20191;-65
2021/09/27 06:29:20;;;;;;;27.80;21.83;;;;;;;;;;2077117;28;20210;-64
2021/09/27 06:30:25;;;;;;;22.15;19.63;;;;;;;;;;2070603;28;20171;-64
2021/09/27 06:31:36;;;;;;;24.70;20.08;;;;;;;;;;2071904;28;20191;-64
2021/09/27 06:32:51;;;;;;;23.02;18.58;;;;;;;;;;2070990;28;20165;-64
2021/09/27 06:34:04;;;;;;;22.20;19.15;;;;;;;;;;2073169;28;20228;-63
2021/09/27 06:35:07;;;;;;;22.90;20.52;;;;;;;;;;2079731;28;20701;-63
2021/09/27 06:36:12;;;;;;;23.77;18.20;;;;;;;;;;2081045;28;20226;-63